ULLI/LED METAR and TAF weather

Enter ICAO airport designator
Station Type Date Time Source
ULLI METAR 2019/07/20 19:30 UTC NOAA

ULLI 201930Z 29002MPS CAVOK 18/14 Q1015 R28R/090060 NOSIG


Station Type Date Time Source
ULLI Decoded METAR 2019/07/20 19:30 UTC NOAA

St. Peterburg, Russia (ULLI) 59-58N 030-18E 6M
Jul 20, 2019 - 03:30 PM EDT / 2019.07.20 1930 UTC
Wind: from the WNW (290 degrees) at 4 MPH (4 KT):0
Visibility: greater than 7 mile(s):0
Temperature: 64 F (18 C)
Dew Point: 57 F (14 C)
Relative Humidity: 77%
Pressure (altimeter): 29.97 in. Hg (1015 hPa)
ob: ULLI 201930Z 29002MPS CAVOK 18/14 Q1015 R28R/090060 NOSIG
cycle: 19

Station Type Date Time Source
ULLI TAF 2019/07/20 18:21 UTC NOAA

TAF TAF
AMD ULLI 201718Z 2018/2118 30004G10MPS 9999 BKN011
TEMPO 2018/2019 34003G08MPS 3100 -TSRA BKN011 BKN015CB
TEMPO 2019/2105 3100 MIFG BR PROB40
TEMPO 2019/2103 0700 FG
BECMG 2106/2108 35003MPS
TEMPO 2109/2118 26003MPS

Example: see airport list